Time;durP1;ratioP1;P1;durP2;ratioP2;P2;SDS_P1;SDS_P2;PMS_P1;PMS_P2;Temp;Humidity;BMP_temperature;BMP_pressure;BME280_temperature;BME280_humidity;BME280_pressure;Samples;Min_cycle;Max_cycle;Signal;HPM_P1;HPM_P2
2023/09/28 00:02:54;;;;;;;31.77;20.48;;;16.40;99.90;;;;;;5061370;28;20040;-71
2023/09/28 00:05:20;;;;;;;29.33;20.15;;;16.40;99.90;;;;;;5061035;28;20017;-71
2023/09/28 00:07:47;;;;;;;37.15;21.05;;;16.40;99.90;;;;;;5060846;28;20037;-73
2023/09/28 00:10:15;;;;;;;34.47;21.70;;;16.40;99.90;;;;;;5059481;28;20021;-72
2023/09/28 00:12:52;;;;;;;32.47;21.10;;;16.40;99.90;;;;;;5060809;28;20020;-73
2023/09/28 00:15:19;;;;;;;30.90;21.67;;;16.30;99.90;;;;;;5059253;28;20044;-72
2023/09/28 00:17:47;;;;;;;31.80;21.77;;;16.30;99.90;;;;;;5061038;28;20075;-73
2023/09/28 00:20:17;;;;;;;34.03;22.17;;;16.30;99.90;;;;;;5060719;28;20013;-72
2023/09/28 00:22:49;;;;;;;36.33;24.20;;;16.30;99.90;;;;;;5060867;28;20029;-72
2023/09/28 00:25:19;;;;;;;32.60;22.00;;;16.30;99.90;;;;;;5060802;28;20363;-71
2023/09/28 00:27:47;;;;;;;36.95;23.48;;;16.30;99.90;;;;;;5060711;28;20121;-72
2023/09/28 00:30:19;;;;;;;36.60;23.48;;;16.40;99.90;;;;;;5060918;28;20025;-71
2023/09/28 00:32:49;;;;;;;35.63;22.45;;;16.40;99.90;;;;;;5060940;28;20021;-72
2023/09/28 00:35:16;;;;;;;37.13;24.67;;;16.40;99.90;;;;;;5059365;28;20052;-74
2023/09/28 00:37:42;;;;;;;34.90;22.33;;;16.40;99.90;;;;;;5060031;28;20029;-72
2023/09/28 00:40:27;;;;;;;37.08;22.73;;;16.40;99.90;;;;;;5059804;28;20474;-72
2023/09/28 00:42:54;;;;;;;30.92;20.77;;;16.40;99.90;;;;;;5063974;28;20084;-72
2023/09/28 00:45:22;;;;;;;35.85;21.98;;;16.40;99.90;;;;;;5064832;28;20103;-74
2023/09/28 00:47:52;;;;;;;31.48;21.02;;;16.40;99.90;;;;;;5064745;28;20092;-72
2023/09/28 00:50:18;;;;;;;36.15;24.75;;;16.40;99.90;;;;;;5063131;28;20017;-76
2023/09/28 00:52:55;;;;;;;33.90;23.10;;;16.40;99.90;;;;;;5064810;28;20043;-71
2023/09/28 00:55:22;;;;;;;39.08;22.98;;;16.40;99.90;;;;;;5063106;28;20017;-73
2023/09/28 00:57:48;;;;;;;36.22;22.52;;;16.40;99.90;;;;;;5063329;28;20033;-74
2023/09/28 01:00:33;;;;;;;38.40;24.42;;;16.40;99.90;;;;;;5064620;28;20028;-73
2023/09/28 01:03:08;;;;;;;34.40;23.33;;;16.40;99.90;;;;;;5061978;28;20033;-71
2023/09/28 01:05:34;;;;;;;37.45;24.48;;;16.30;99.90;;;;;;5062866;28;20057;-74
2023/09/28 01:08:19;;;;;;;35.95;24.25;;;16.30;99.90;;;;;;5062846;28;20037;-72
2023/09/28 01:10:45;;;;;;;37.50;23.58;;;16.30;99.90;;;;;;5063420;28;20028;-72
2023/09/28 01:13:12;;;;;;;32.78;21.80;;;16.30;99.90;;;;;;5063186;28;20382;-73
2023/09/28 01:15:39;;;;;;;32.60;23.48;;;16.30;99.90;;;;;;5063270;28;20029;-74
2023/09/28 01:18:12;;;;;;;35.13;23.23;;;16.30;99.90;;;;;;5063774;28;20021;-71
2023/09/28 01:20:39;;;;;;;36.00;23.73;;;16.30;99.90;;;;;;5063094;28;20049;-72
2023/09/28 01:23:05;;;;;;;38.00;23.23;;;16.30;99.90;;;;;;5064262;28;20024;-72
2023/09/28 01:25:31;;;;;;;36.88;23.20;;;16.30;99.90;;;;;;5064197;28;20033;-71
2023/09/28 01:27:57;;;;;;;32.65;22.35;;;16.30;99.90;;;;;;5062633;28;20052;-72
2023/09/28 01:30:24;;;;;;;31.45;22.40;;;16.30;99.90;;;;;;5063926;28;20025;-75
2023/09/28 01:32:49;;;;;;;36.28;23.95;;;16.30;99.90;;;;;;5063900;28;20035;-72
2023/09/28 01:35:16;;;;;;;36.28;23.17;;;16.20;99.90;;;;;;5063425;28;20021;-71
2023/09/28 01:37:54;;;;;;;34.40;22.75;;;16.20;99.90;;;;;;5062500;28;20041;-74
2023/09/28 01:40:19;;;;;;;34.97;23.20;;;16.20;99.90;;;;;;5062118;28;20045;-71
2023/09/28 01:42:45;;;;;;;33.90;22.23;;;16.20;99.90;;;;;;5062577;28;20044;-72
2023/09/28 01:45:15;;;;;;;34.58;21.92;;;16.20;99.90;;;;;;5061736;28;20470;-72
2023/09/28 01:47:40;;;;;;;38.92;23.17;;;16.20;99.90;;;;;;5063297;28;20035;-72
2023/09/28 01:50:06;;;;;;;34.13;23.13;;;16.20;99.90;;;;;;5063946;28;20478;-72
2023/09/28 01:52:32;;;;;;;36.08;23.25;;;16.20;99.90;;;;;;5062956;28;20474;-71
2023/09/28 01:54:58;;;;;;;29.80;22.73;;;16.20;99.90;;;;;;5063182;28;20033;-73
2023/09/28 01:57:23;;;;;;;32.92;23.38;;;16.20;99.90;;;;;;5061590;28;20043;-73
2023/09/28 01:59:49;;;;;;;34.80;23.27;;;16.20;99.90;;;;;;5063347;28;20103;-73
2023/09/28 02:02:20;;;;;;;40.78;22.67;;;16.20;99.90;;;;;;5063556;28;20032;-72
2023/09/28 02:04:46;;;;;;;33.28;22.73;;;16.20;99.90;;;;;;5062373;28;20025;-72
2023/09/28 02:07:12;;;;;;;32.03;22.67;;;16.20;99.90;;;;;;5061663;28;20352;-73
2023/09/28 02:09:37;;;;;;;35.88;23.42;;;16.20;99.90;;;;;;5063344;28;20039;-73
2023/09/28 02:12:03;;;;;;;31.55;21.98;;;16.20;99.90;;;;;;5061903;28;20055;-73
2023/09/28 02:14:29;;;;;;;36.90;24.02;;;16.10;99.90;;;;;;5060929;28;20051;-72
2023/09/28 02:16:56;;;;;;;36.45;21.38;;;16.10;99.90;;;;;;5063199;28;20017;-73
2023/09/28 02:19:22;;;;;;;32.72;21.33;;;16.10;99.90;;;;;;5062430;28;20112;-72
2023/09/28 02:21:47;;;;;;;36.13;23.27;;;16.20;99.90;;;;;;5061688;28;20028;-73
2023/09/28 02:24:13;;;;;;;34.38;21.92;;;16.20;99.90;;;;;;5062569;28;20056;-74
2023/09/28 02:26:39;;;;;;;33.33;22.50;;;16.20;99.90;;;;;;5063109;28;20088;-73
2023/09/28 02:29:04;;;;;;;33.10;22.25;;;16.20;99.90;;;;;;5061831;28;20044;-72
2023/09/28 02:31:31;;;;;;;30.88;21.45;;;16.10;99.90;;;;;;5063029;28;20032;-73
2023/09/28 02:33:56;;;;;;;31.55;21.80;;;16.10;99.90;;;;;;5061883;28;20025;-74
2023/09/28 02:36:22;;;;;;;29.30;20.80;;;16.20;99.90;;;;;;5063336;28;20101;-73
2023/09/28 02:38:48;;;;;;;31.67;19.80;;;16.10;99.90;;;;;;5060808;28;20017;-72
2023/09/28 02:41:20;;;;;;;30.70;21.42;;;16.10;99.90;;;;;;5062064;28;20036;-72
2023/09/28 02:43:46;;;;;;;28.70;20.85;;;16.10;99.90;;;;;;5061067;28;20029;-70
2023/09/28 02:46:15;;;;;;;32.05;21.77;;;16.10;99.90;;;;;;5060952;28;20702;-74
2023/09/28 02:48:40;;;;;;;34.65;23.05;;;16.10;99.90;;;;;;5062427;28;20068;-72
2023/09/28 02:51:11;;;;;;;33.83;21.50;;;16.10;99.90;;;;;;5062766;28;20025;-72
2023/09/28 02:53:37;;;;;;;33.53;21.40;;;16.10;99.90;;;;;;5060629;28;20029;-73
2023/09/28 02:56:03;;;;;;;29.42;20.65;;;16.10;99.90;;;;;;5062569;28;20009;-72
2023/09/28 02:58:29;;;;;;;28.83;20.70;;;16.10;99.90;;;;;;5062235;28;20477;-73
2023/09/28 03:00:56;;;;;;;29.63;20.85;;;16.10;99.90;;;;;;5062061;28;20025;-72
2023/09/28 03:03:23;;;;;;;31.40;20.23;;;16.10;99.90;;;;;;5060461;28;20032;-71
2023/09/28 03:05:51;;;;;;;30.88;20.33;;;16.10;99.90;;;;;;5061226;28;20021;-73
2023/09/28 03:08:17;;;;;;;28.95;20.23;;;16.10;99.90;;;;;;5059143;28;20083;-71
2023/09/28 03:10:44;;;;;;;30.48;20.00;;;16.10;99.90;;;;;;5062253;28;20017;-75
2023/09/28 03:13:11;;;;;;;28.40;18.63;;;16.10;99.90;;;;;;5061562;28;20028;-76
2023/09/28 03:15:41;;;;;;;30.55;18.42;;;16.10;99.90;;;;;;5062117;28;20079;-74
2023/09/28 03:18:07;;;;;;;27.08;17.77;;;16.10;99.90;;;;;;5060850;28;20032;-75
2023/09/28 03:20:33;;;;;;;25.10;17.15;;;16.10;99.90;;;;;;5062016;28;20033;-72
2023/09/28 03:23:00;;;;;;;23.52;17.38;;;16.10;99.90;;;;;;5060179;28;20060;-72
2023/09/28 03:25:25;;;;;;;24.00;16.15;;;16.10;99.90;;;;;;5061264;28;20029;-73
2023/09/28 03:27:53;;;;;;;23.40;16.63;;;16.10;99.90;;;;;;5061568;28;20041;-71
2023/09/28 03:30:23;;;;;;;24.52;16.98;;;16.10;99.90;;;;;;5061142;28;20021;-73
2023/09/28 03:32:48;;;;;;;26.15;15.75;;;16.10;99.90;;;;;;5059985;28;20036;-72
2023/09/28 03:35:16;;;;;;;24.92;16.55;;;16.10;99.90;;;;;;5061366;28;20021;-74
2023/09/28 03:37:42;;;;;;;26.55;16.33;;;16.10;99.90;;;;;;5059718;28;20079;-73
2023/09/28 03:40:10;;;;;;;25.42;16.45;;;16.10;99.90;;;;;;5060428;28;20029;-73
2023/09/28 03:42:44;;;;;;;24.48;16.35;;;16.10;99.90;;;;;;5061450;28;20021;-72
2023/09/28 03:45:14;;;;;;;25.55;15.63;;;16.10;99.90;;;;;;5060786;28;20025;-73
2023/09/28 03:47:41;;;;;;;23.00;15.63;;;16.10;99.90;;;;;;5059986;28;20110;-74
2023/09/28 03:50:11;;;;;;;20.10;14.35;;;16.10;99.90;;;;;;5060759;28;20054;-74
2023/09/28 03:52:37;;;;;;;27.45;15.18;;;16.10;99.90;;;;;;5061574;28;21352;-73
2023/09/28 03:55:10;;;;;;;24.45;15.05;;;16.10;99.90;;;;;;5059791;28;20106;-74
2023/09/28 03:57:36;;;;;;;19.98;14.00;;;16.10;99.90;;;;;;5075954;28;20029;-75
2023/09/28 04:00:03;;;;;;;24.77;15.45;;;16.10;99.90;;;;;;5060277;28;20091;-74
2023/09/28 04:02:29;;;;;;;20.50;14.88;;;16.20;99.90;;;;;;5060744;28;20557;-72
2023/09/28 04:04:56;;;;;;;23.80;14.95;;;16.20;99.90;;;;;;5058599;28;20052;-72
2023/09/28 04:07:22;;;;;;;19.88;13.65;;;16.10;99.90;;;;;;5060798;28;20033;-72
2023/09/28 04:09:48;;;;;;;18.20;13.68;;;16.20;99.90;;;;;;5061082;28;20028;-75
2023/09/28 04:12:14;;;;;;;20.08;14.15;;;16.20;99.90;;;;;;5060213;28;20029;-73
2023/09/28 04:14:42;;;;;;;16.95;13.00;;;16.20;99.90;;;;;;5059992;28;20040;-73
2023/09/28 04:17:08;;;;;;;19.95;13.15;;;16.20;99.90;;;;;;5058356;28;20025;-73
2023/09/28 04:19:34;;;;;;;20.48;12.98;;;16.20;99.90;;;;;;5059304;28;20083;-74
2023/09/28 04:21:59;;;;;;;16.27;11.57;;;16.30;99.90;;;;;;5061178;28;20017;-75
2023/09/28 04:24:25;;;;;;;17.00;11.73;;;16.30;99.90;;;;;;5060570;28;20551;-74
2023/09/28 04:26:51;;;;;;;18.98;12.35;;;16.20;99.90;;;;;;5058697;28;20071;-73
2023/09/28 04:29:17;;;;;;;16.85;12.25;;;16.30;99.90;;;;;;5060769;28;20027;-73
2023/09/28 04:31:42;;;;;;;17.30;11.30;;;16.30;99.90;;;;;;5059574;28;20040;-73
2023/09/28 04:34:12;;;;;;;20.48;12.00;;;16.30;99.90;;;;;;5059861;28;20108;-72
2023/09/28 04:36:38;;;;;;;15.30;10.75;;;16.30;99.90;;;;;;5059276;28;20055;-74
2023/09/28 04:39:05;;;;;;;16.25;11.93;;;16.40;99.90;;;;;;5060964;28;20048;-73
2023/09/28 04:41:31;;;;;;;21.77;11.88;;;16.30;99.90;;;;;;5060890;28;20033;-73
2023/09/28 04:43:58;;;;;;;16.63;12.10;;;16.30;99.90;;;;;;5059562;28;20020;-72
2023/09/28 04:46:23;;;;;;;17.33;11.98;;;16.40;99.90;;;;;;5058480;28;20093;-72
2023/09/28 04:48:49;;;;;;;21.65;12.40;;;16.30;99.90;;;;;;5059164;28;20057;-73
2023/09/28 04:51:15;;;;;;;19.35;12.57;;;16.30;99.90;;;;;;5058693;28;20032;-73
2023/09/28 04:53:40;;;;;;;17.98;12.25;;;16.40;99.90;;;;;;5059665;28;20112;-74
2023/09/28 04:56:10;;;;;;;19.35;11.93;;;16.30;99.90;;;;;;5060774;28;20021;-74
2023/09/28 04:58:36;;;;;;;22.33;12.63;;;16.30;99.90;;;;;;5060789;28;20031;-74
2023/09/28 05:01:01;;;;;;;14.45;11.40;;;16.30;99.90;;;;;;5060544;28;20545;-73
2023/09/28 05:03:27;;;;;;;17.75;12.02;;;16.30;99.90;;;;;;5060001;28;20057;-71
2023/09/28 05:05:52;;;;;;;16.25;11.40;;;16.30;99.90;;;;;;5059254;28;20025;-72
2023/09/28 05:08:18;;;;;;;17.20;11.55;;;16.30;99.90;;;;;;5060309;28;20113;-73
2023/09/28 05:10:44;;;;;;;20.00;11.65;;;16.30;99.90;;;;;;5059611;28;20051;-72
2023/09/28 05:13:12;;;;;;;16.45;12.35;;;16.20;99.90;;;;;;5057742;28;20048;-72
2023/09/28 05:15:38;;;;;;;22.58;11.85;;;16.20;99.90;;;;;;5059782;28;20040;-71
2023/09/28 05:18:04;;;;;;;21.65;12.70;;;16.20;99.90;;;;;;5057809;28;20029;-71
2023/09/28 05:20:30;;;;;;;19.15;12.85;;;16.20;99.90;;;;;;5059073;28;20067;-71
2023/09/28 05:22:56;;;;;;;16.08;12.07;;;16.20;99.90;;;;;;5058343;28;20037;-71
2023/09/28 05:25:21;;;;;;;20.83;12.65;;;16.20;99.90;;;;;;5059788;28;20025;-71
2023/09/28 05:27:47;;;;;;;20.05;12.75;;;16.10;99.90;;;;;;5061673;28;20029;-70
2023/09/28 05:30:13;;;;;;;27.75;13.43;;;16.10;99.90;;;;;;5064441;28;20088;-72
2023/09/28 05:32:39;;;;;;;33.83;13.82;;;16.10;99.90;;;;;;5064418;28;20032;-71
2023/09/28 05:35:08;;;;;;;28.20;13.98;;;16.10;99.90;;;;;;5064172;28;20041;-71
2023/09/28 05:37:33;;;;;;;26.33;13.15;;;16.10;99.90;;;;;;5063773;28;20069;-70
2023/09/28 05:40:00;;;;;;;22.83;13.07;;;16.10;99.90;;;;;;5064319;28;20083;-70
2023/09/28 05:42:26;;;;;;;24.67;13.30;;;16.10;99.90;;;;;;5063566;28;20037;-72
2023/09/28 05:44:52;;;;;;;20.42;12.63;;;16.10;99.90;;;;;;5064225;28;20070;-70
2023/09/28 05:47:21;;;;;;;18.98;12.38;;;16.00;99.90;;;;;;5064014;28;20033;-72
2023/09/28 05:49:49;;;;;;;22.30;11.80;;;16.00;99.90;;;;;;5063252;28;20025;-73
2023/09/28 05:52:15;;;;;;;18.80;12.23;;;16.00;99.90;;;;;;5063951;28;20017;-72
2023/09/28 05:54:40;;;;;;;22.27;12.20;;;16.00;99.90;;;;;;5062905;28;20070;-71
2023/09/28 05:57:07;;;;;;;23.33;11.85;;;15.90;99.90;;;;;;5062584;28;20095;-73
2023/09/28 05:59:33;;;;;;;21.25;11.93;;;16.00;99.90;;;;;;5064212;28;20021;-72
2023/09/28 06:01:58;;;;;;;16.52;11.43;;;15.90;99.90;;;;;;5062240;28;20025;-73
2023/09/28 06:04:25;;;;;;;23.52;12.77;;;16.00;99.90;;;;;;5063869;28;20112;-71
2023/09/28 06:06:50;;;;;;;17.30;11.93;;;15.90;99.90;;;;;;5063777;28;20021;-72
2023/09/28 06:09:20;;;;;;;30.08;12.93;;;15.90;99.90;;;;;;5063230;28;20032;-72
2023/09/28 06:11:46;;;;;;;25.30;13.05;;;15.90;99.90;;;;;;5062134;28;20033;-71
2023/09/28 06:14:15;;;;;;;21.90;13.18;;;15.90;99.90;;;;;;5063210;28;20486;-71
2023/09/28 06:16:44;;;;;;;36.80;13.10;;;15.90;99.90;;;;;;5063264;28;20031;-72
2023/09/28 06:19:10;;;;;;;26.63;13.57;;;15.90;99.90;;;;;;5063422;28;20079;-72
2023/09/28 06:21:36;;;;;;;18.10;12.57;;;15.90;99.90;;;;;;5062022;28;20425;-73
2023/09/28 06:24:02;;;;;;;20.85;12.30;;;15.90;99.90;;;;;;5063327;28;20032;-71
2023/09/28 06:26:27;;;;;;;26.70;12.02;;;15.90;99.90;;;;;;5062775;28;20021;-70
2023/09/28 06:28:54;;;;;;;21.42;12.63;;;15.90;99.90;;;;;;5061855;28;20101;-70
2023/09/28 06:31:20;;;;;;;21.40;11.85;;;15.90;99.90;;;;;;5061521;28;20025;-71
2023/09/28 06:33:48;;;;;;;18.75;12.63;;;15.90;99.90;;;;;;5062563;28;20048;-71
2023/09/28 06:36:15;;;;;;;25.48;12.85;;;15.90;99.90;;;;;;5062004;28;20057;-71
2023/09/28 06:38:41;;;;;;;24.70;14.15;;;15.90;99.90;;;;;;5061237;28;20025;-71
2023/09/28 06:41:06;;;;;;;25.90;13.80;;;15.90;99.90;;;;;;5060574;28;20052;-72
2023/09/28 06:43:32;;;;;;;19.17;12.77;;;16.00;99.90;;;;;;5062101;28;20033;-70
2023/09/28 06:45:58;;;;;;;19.65;12.55;;;16.00;99.90;;;;;;5061064;28;20078;-70
2023/09/28 06:48:27;;;;;;;19.98;12.80;;;16.00;99.90;;;;;;5062367;28;20103;-69
2023/09/28 06:50:58;;;;;;;19.02;12.23;;;16.10;99.90;;;;;;5062744;28;20032;-70
2023/09/28 06:53:25;;;;;;;17.92;12.13;;;16.20;99.90;;;;;;5062512;28;20085;-71
2023/09/28 06:55:52;;;;;;;24.00;13.00;;;16.20;99.90;;;;;;5062956;28;20021;-71
2023/09/28 06:58:17;;;;;;;19.02;13.07;;;16.30;99.90;;;;;;5061187;28;20088;-71
2023/09/28 07:00:44;;;;;;;21.83;13.18;;;16.40;99.90;;;;;;5059625;28;20072;-70
2023/09/28 07:03:11;;;;;;;25.85;13.27;;;16.40;99.90;;;;;;5062590;28;20043;-70
2023/09/28 07:05:41;;;;;;;17.23;11.57;;;16.50;99.90;;;;;;5061465;28;20028;-71
2023/09/28 07:08:06;;;;;;;23.55;12.85;;;16.60;99.90;;;;;;5062397;28;20032;-72
2023/09/28 07:10:33;;;;;;;20.52;12.73;;;16.70;99.90;;;;;;5062813;28;20385;-71
2023/09/28 07:13:00;;;;;;;20.83;13.55;;;16.80;99.90;;;;;;5061045;28;20028;-70
2023/09/28 07:15:28;;;;;;;19.02;12.55;;;16.90;99.90;;;;;;5062524;28;20051;-71
2023/09/28 07:17:55;;;;;;;21.02;12.32;;;17.00;99.90;;;;;;5060978;28;20052;-71
2023/09/28 07:20:20;;;;;;;20.48;12.05;;;17.10;99.90;;;;;;5062227;28;20054;-70
2023/09/28 07:22:46;;;;;;;27.08;12.82;;;17.20;99.90;;;;;;5060924;28;20029;-70
2023/09/28 07:25:12;;;;;;;18.35;11.88;;;17.30;99.90;;;;;;5061111;28;20032;-71
2023/09/28 07:27:38;;;;;;;19.38;11.88;;;17.40;99.90;;;;;;5061951;28;20029;-71
2023/09/28 07:30:05;;;;;;;20.27;12.02;;;17.50;99.90;;;;;;5062727;28;20029;-71
2023/09/28 07:32:31;;;;;;;19.98;10.48;;;17.60;99.90;;;;;;5061552;28;20037;-70
2023/09/28 07:34:57;;;;;;;18.23;11.23;;;17.80;99.90;;;;;;5060661;28;20029;-70
2023/09/28 07:37:24;;;;;;;18.95;10.63;;;17.90;99.90;;;;;;5061918;28;20049;-71
2023/09/28 07:39:50;;;;;;;14.65;10.55;;;18.10;99.90;;;;;;5061968;28;20052;-71
2023/09/28 07:42:16;;;;;;;17.67;9.75;;;18.40;99.90;;;;;;5061682;28;20020;-71
2023/09/28 07:44:42;;;;;;;15.27;10.05;;;18.60;99.90;;;;;;5062195;28;20373;-70
2023/09/28 07:47:08;;;;;;;15.60;10.07;;;18.80;99.90;;;;;;5062012;28;20123;-70
2023/09/28 07:49:34;;;;;;;15.85;9.70;;;18.90;99.90;;;;;;5061532;28;20577;-70
2023/09/28 07:52:02;;;;;;;16.05;9.43;;;19.10;99.90;;;;;;5061231;28;20024;-70
2023/09/28 07:54:28;;;;;;;15.27;9.65;;;19.30;99.90;;;;;;5055956;28;20024;-69
2023/09/28 07:56:55;;;;;;;11.52;8.65;;;19.40;99.90;;;;;;5059855;28;20029;-71
2023/09/28 07:59:21;;;;;;;12.27;8.98;;;19.50;99.90;;;;;;5060266;28;20021;-70
2023/09/28 08:01:48;;;;;;;17.92;9.30;;;19.60;99.90;;;;;;5060705;28;20120;-71
2023/09/28 08:04:13;;;;;;;17.08;9.30;;;19.70;99.90;;;;;;5061358;28;20077;-70
2023/09/28 08:06:42;;;;;;;15.80;9.60;;;19.80;99.90;;;;;;5060364;28;20037;-71
2023/09/28 08:09:13;;;;;;;24.05;9.80;;;19.90;99.90;;;;;;5058921;28;20383;-72
2023/09/28 08:11:39;;;;;;;15.23;9.32;;;20.00;99.90;;;;;;5057878;28;20486;-72
2023/09/28 08:14:05;;;;;;;14.38;9.07;;;20.10;99.90;;;;;;5060621;28;20425;-69
2023/09/28 08:16:30;;;;;;;14.52;8.82;;;20.10;99.90;;;;;;5060293;28;20052;-73
2023/09/28 08:18:56;;;;;;;15.77;8.48;;;20.20;99.90;;;;;;5060138;28;20068;-69
2023/09/28 08:21:24;;;;;;;12.20;7.90;;;20.20;99.90;;;;;;5059743;28;20025;-71
2023/09/28 08:23:50;;;;;;;17.98;8.65;;;20.20;99.90;;;;;;5059548;28;20017;-70
2023/09/28 08:26:16;;;;;;;12.75;7.80;;;20.20;99.90;;;;;;5061634;28;20454;-69
2023/09/28 08:28:42;;;;;;;14.20;7.88;;;20.20;99.90;;;;;;5060155;28;20036;-71
2023/09/28 08:31:09;;;;;;;14.05;7.88;;;20.10;99.90;;;;;;5060041;28;20044;-70
2023/09/28 08:33:35;;;;;;;11.15;6.95;;;20.20;99.90;;;;;;5060618;28;20025;-71
2023/09/28 08:36:01;;;;;;;14.95;7.07;;;20.20;99.90;;;;;;5060429;28;20077;-71
2023/09/28 08:38:27;;;;;;;12.00;6.20;;;20.20;99.90;;;;;;5060208;28;20037;-71
2023/09/28 08:40:59;;;;;;;14.00;6.40;;;20.20;99.90;;;;;;5059998;28;20033;-71
2023/09/28 08:43:29;;;;;;;11.10;6.28;;;20.30;99.90;;;;;;5057635;28;20083;-70
2023/09/28 08:45:57;;;;;;;12.43;6.38;;;20.30;99.90;;;;;;5060912;28;20025;-71
2023/09/28 08:48:27;;;;;;;11.55;6.05;;;20.30;99.90;;;;;;5058719;28;20977;-70
2023/09/28 08:51:01;;;;;;;15.93;6.55;;;20.30;99.90;;;;;;5060445;28;20025;-71
2023/09/28 08:53:27;;;;;;;13.40;5.85;;;20.40;99.90;;;;;;5061039;28;20017;-71
2023/09/28 08:55:53;;;;;;;12.55;6.40;;;20.40;99.90;;;;;;5061324;28;20048;-71
2023/09/28 08:58:19;;;;;;;21.52;5.90;;;20.50;99.90;;;;;;5059623;28;20577;-70
2023/09/28 09:00:45;;;;;;;12.98;5.88;;;20.50;99.90;;;;;;5059789;28;20029;-70
2023/09/28 09:03:13;;;;;;;13.80;5.57;;;20.60;99.90;;;;;;5062828;28;20033;-72
2023/09/28 09:05:40;;;;;;;26.23;7.25;;;20.60;99.90;;;;;;5064859;28;20040;-71
2023/09/28 09:08:06;;;;;;;14.23;5.10;;;20.60;99.90;;;;;;5063779;28;20041;-72
2023/09/28 09:10:31;;;;;;;10.73;5.20;;;20.60;99.90;;;;;;5064461;28;20037;-71
2023/09/28 09:12:57;;;;;;;12.85;5.28;;;20.60;99.90;;;;;;5064024;28;20056;-72
2023/09/28 09:15:24;;;;;;;15.63;5.43;;;20.70;99.90;;;;;;5063206;28;20115;-69
2023/09/28 09:17:59;;;;;;;15.85;5.40;;;20.80;99.90;;;;;;5064216;28;20025;-71
2023/09/28 09:20:28;;;;;;;16.33;5.18;;;20.80;99.90;;;;;;5064791;28;20028;-70
2023/09/28 09:22:53;;;;;;;17.20;5.47;;;20.90;99.90;;;;;;5061455;28;20068;-71
2023/09/28 09:25:20;;;;;;;14.10;4.97;;;20.90;99.90;;;;;;5063023;28;20032;-72
2023/09/28 09:27:46;;;;;;;18.38;4.95;;;20.90;99.90;;;;;;5064539;28;20068;-70
2023/09/28 09:30:14;;;;;;;19.48;5.05;;;20.90;99.90;;;;;;5064255;28;20435;-67
2023/09/28 09:32:42;;;;;;;13.45;4.47;;;20.90;99.90;;;;;;5064541;28;20097;-68
2023/09/28 09:35:10;;;;;;;17.05;4.75;;;20.90;99.90;;;;;;5063615;28;20043;-71
2023/09/28 09:37:41;;;;;;;13.95;4.50;;;21.00;99.90;;;;;;5063307;28;20049;-67
2023/09/28 09:40:13;;;;;;;15.88;4.47;;;21.00;99.90;;;;;;5064640;28;20028;-68
2023/09/28 09:42:39;;;;;;;22.20;4.90;;;21.00;99.90;;;;;;5063016;28;20104;-69
2023/09/28 09:45:07;;;;;;;16.70;4.60;;;21.00;99.90;;;;;;5064107;28;20021;-70
2023/09/28 09:47:33;;;;;;;15.85;4.47;;;21.00;99.90;;;;;;5062885;28;20061;-71
2023/09/28 09:50:01;;;;;;;16.02;4.25;;;21.10;99.90;;;;;;5064209;28;20093;-71
2023/09/28 09:52:29;;;;;;;10.93;4.07;;;21.10;99.90;;;;;;5063133;28;20433;-71
2023/09/28 09:54:55;;;;;;;16.70;4.43;;;21.10;99.90;;;;;;5062665;28;20021;-71
2023/09/28 09:57:23;;;;;;;19.05;5.00;;;21.20;99.90;;;;;;5063715;28;20078;-72
2023/09/28 09:59:53;;;;;;;18.75;4.85;;;21.20;99.90;;;;;;5063059;28;20537;-73
2023/09/28 10:02:28;;;;;;;21.80;5.43;;;21.20;99.90;;;;;;5062809;28;20044;-72
2023/09/28 10:04:54;;;;;;;18.08;4.55;;;21.40;99.90;;;;;;5064086;28;20092;-71
2023/09/28 10:07:26;;;;;;;20.83;4.38;;;21.40;99.90;;;;;;5063431;28;20043;-71
2023/09/28 10:09:53;;;;;;;18.02;4.82;;;21.40;99.90;;;;;;5056626;28;20029;-71
2023/09/28 10:12:19;;;;;;;22.55;4.55;;;21.50;99.90;;;;;;5062656;28;20084;-70
2023/09/28 10:14:45;;;;;;;18.55;4.35;;;21.50;99.90;;;;;;5061468;28;20021;-69
2023/09/28 10:17:11;;;;;;;23.17;4.75;;;21.50;99.90;;;;;;5062041;28;20033;-70
2023/09/28 10:19:38;;;;;;;21.83;4.18;;;21.60;99.90;;;;;;5063491;28;20043;-72
2023/09/28 10:22:04;;;;;;;17.77;4.22;;;21.60;99.90;;;;;;5062245;28;20053;-69
2023/09/28 10:24:31;;;;;;;24.08;4.80;;;21.60;99.90;;;;;;5062844;28;20032;-69
2023/09/28 10:27:06;;;;;;;13.50;4.15;;;21.50;99.90;;;;;;5061328;28;20021;-70
2023/09/28 10:29:32;;;;;;;20.58;4.68;;;21.50;99.90;;;;;;5062980;28;20021;-69
2023/09/28 10:31:58;;;;;;;18.17;4.38;;;21.50;99.90;;;;;;5059160;28;20025;-70
2023/09/28 10:34:26;;;;;;;25.25;4.65;;;21.60;99.90;;;;;;5063221;28;21264;-71
2023/09/28 10:39:33;;;;;;;23.05;4.57;;;21.80;99.90;;;;;;5063660;28;20025;-71
2023/09/28 10:42:11;;;;;;;21.55;4.30;;;21.90;99.90;;;;;;5060485;28;20029;-71
2023/09/28 10:44:55;;;;;;;18.98;3.85;;;22.00;99.90;;;;;;5062820;28;20020;-71
2023/09/28 10:47:22;;;;;;;19.77;4.15;;;22.00;99.90;;;;;;5061248;28;20044;-70
2023/09/28 10:49:49;;;;;;;27.95;3.92;;;22.00;99.90;;;;;;5062850;28;20017;-72
2023/09/28 10:52:16;;;;;;;17.92;3.67;;;22.00;99.90;;;;;;5062877;28;20017;-71
2023/09/28 10:54:44;;;;;;;22.95;4.53;;;22.00;99.90;;;;;;5063013;28;20017;-73
2023/09/28 10:57:10;;;;;;;25.40;4.25;;;21.90;99.90;;;;;;5061183;28;20021;-71
2023/09/28 10:59:41;;;;;;;21.65;4.22;;;21.90;99.90;;;;;;5062421;28;20051;-71
2023/09/28 11:02:08;;;;;;;18.90;4.15;;;21.90;99.90;;;;;;5062168;28;20029;-74
2023/09/28 11:04:39;;;;;;;23.05;4.63;;;22.00;99.90;;;;;;5062914;28;20092;-71
2023/09/28 11:07:06;;;;;;;25.00;4.38;;;22.10;99.90;;;;;;5063012;28;20032;-71
2023/09/28 11:09:31;;;;;;;20.13;4.28;;;22.10;99.90;;;;;;5061949;28;20067;-71
2023/09/28 11:11:57;;;;;;;20.42;4.57;;;22.20;99.90;;;;;;5062600;28;20124;-72
2023/09/28 11:14:26;;;;;;;18.60;4.53;;;22.20;99.90;;;;;;5062412;28;20018;-70
2023/09/28 11:16:52;;;;;;;19.92;4.35;;;22.30;99.90;;;;;;5062232;28;20047;-76
2023/09/28 11:19:18;;;;;;;22.08;4.30;;;22.40;99.90;;;;;;5061019;28;20031;-70
2023/09/28 11:21:45;;;;;;;19.02;4.47;;;22.40;99.90;;;;;;5060964;28;20033;-70
2023/09/28 11:24:14;;;;;;;20.40;4.53;;;22.40;99.90;;;;;;5060965;28;20044;-71
2023/09/28 11:26:40;;;;;;;19.92;4.25;;;22.40;99.90;;;;;;5061693;28;20021;-72
2023/09/28 11:29:06;;;;;;;19.20;4.18;;;22.50;99.90;;;;;;5062347;28;20509;-71
2023/09/28 11:31:35;;;;;;;19.75;4.32;;;22.60;99.90;;;;;;5062145;28;20037;-70
2023/09/28 11:34:02;;;;;;;23.52;4.95;;;22.80;99.90;;;;;;5060992;28;20060;-72
2023/09/28 11:36:29;;;;;;;19.95;4.32;;;22.90;99.90;;;;;;5060442;28;20048;-71
2023/09/28 11:38:55;;;;;;;18.20;4.28;;;23.00;99.90;;;;;;5061788;28;20025;-71
2023/09/28 11:41:23;;;;;;;16.48;4.47;;;23.00;99.90;;;;;;5061974;28;20056;-70
2023/09/28 11:43:51;;;;;;;20.27;4.40;;;23.10;99.90;;;;;;5061697;28;20013;-71
2023/09/28 11:46:28;;;;;;;21.67;4.95;;;23.30;99.90;;;;;;5059955;28;20013;-72
2023/09/28 11:49:14;;;;;;;20.30;4.20;;;23.40;99.90;;;;;;5061689;28;20496;-71
2023/09/28 11:51:40;;;;;;;17.83;4.03;;;23.50;99.90;;;;;;5060405;28;20033;-70
2023/09/28 11:54:07;;;;;;;18.60;4.60;;;23.60;99.90;;;;;;5061400;28;20036;-72
2023/09/28 11:56:33;;;;;;;16.55;4.35;;;23.50;99.90;;;;;;5060568;28;20029;-71
2023/09/28 11:58:59;;;;;;;13.88;4.30;;;23.60;99.90;;;;;;5061463;28;20021;-71
2023/09/28 12:01:25;;;;;;;17.25;4.15;;;23.70;99.90;;;;;;5060771;28;21041;-69
2023/09/28 12:03:50;;;;;;;16.50;4.57;;;23.70;99.90;;;;;;5062105;28;20039;-69
2023/09/28 12:06:20;;;;;;;13.50;4.90;;;23.70;99.90;;;;;;5061237;28;20029;-71
2023/09/28 12:08:46;;;;;;;14.32;4.45;;;23.70;99.90;;;;;;5061242;28;20127;-70
2023/09/28 12:11:12;;;;;;;16.58;4.85;;;23.80;99.90;;;;;;5060505;28;20608;-72
2023/09/28 12:13:38;;;;;;;19.02;5.18;;;23.90;99.90;;;;;;5061630;28;20029;-68
2023/09/28 12:16:05;;;;;;;13.07;4.45;;;23.90;99.90;;;;;;5060689;28;20021;-71
2023/09/28 12:18:31;;;;;;;14.15;4.30;;;24.00;99.90;;;;;;5060349;28;20154;-71
2023/09/28 12:20:57;;;;;;;12.90;4.22;;;24.10;99.90;;;;;;5061235;28;20029;-70
2023/09/28 12:23:22;;;;;;;12.77;4.25;;;24.10;99.90;;;;;;5060181;28;20036;-71
2023/09/28 12:25:48;;;;;;;11.00;4.82;;;24.20;99.90;;;;;;5060399;28;20025;-70
2023/09/28 12:28:14;;;;;;;12.43;4.40;;;24.30;99.90;;;;;;5059787;28;20037;-71
2023/09/28 12:30:39;;;;;;;11.00;4.18;;;24.20;99.90;;;;;;5061529;28;20043;-72
2023/09/28 12:33:08;;;;;;;12.60;4.45;;;24.30;99.90;;;;;;5061808;28;20039;-72
2023/09/28 12:35:35;;;;;;;12.32;4.38;;;24.20;99.90;;;;;;5060643;28;20045;-71